• Join FlightAware (Why Join?)
  • Login
  • US Flag 
07:03PM EDT


 

Airport Tracker/Info


-or-


 

Live Flight TrackerFlight Track Log ✈ SWA1810 ✈ 26-Apr-2013 ✈ KMSY - KBWI

Flight Track Log - Related Links

Times and Time Zones

All times are in EDT time to prevent confusion due to time zone crossing. See the SWA1810 flight status page for this flight to view local times or setup timezone preferences in your user account.

Time Position Orientation Groundspeed Altitude Reporting Facility
EDT Latitude Longitude Course Direction KTS MPH feet Rate Location/Type
07:50AM 30.0133 -90.2428 North 151 174 1,100  Level Houston Center
07:50AM 30.0436 -90.2381 North 211 243 2,100 2,580 Climbing Houston Center
07:51AM 30.1058 -90.2117 20° North 245 282 5,500 3,360 Climbing Houston Center
07:52AM 30.1550 -90.1442 50° Northeast 274 315 9,100 2,820 Climbing Houston Center
07:53AM 30.2092 -90.0642 52° Northeast 308 354 11,300 2,880 Climbing Houston Center
07:54AM 30.2900 -89.9436 52° Northeast 386 444 15,000 3,120 Climbing Houston Center
07:55AM 30.3614 -89.8369 52° Northeast 403 464 17,700 2,400 Climbing Houston Center
07:56AM 30.4256 -89.7433 52° Northeast 431 496 20,000 2,340 Climbing Houston Center
07:58AM 30.5017 -89.6297 52° Northeast 440 506 22,600 2,640 Climbing Houston Center
07:59AM 30.5900 -89.4842 55° Northeast 463 533 25,400 2,100 Climbing Houston Center
08:00AM 30.6608 -89.3525 58° Northeast 480 552 26,900 1,620 Climbing Houston Center
08:01AM 30.7325 -89.2133 59° Northeast 500 575 28,800 1,800 Climbing Houston Center
08:02AM 30.8056 -89.0744 58° Northeast 502 578 30,700 1,800 Climbing Houston Center
08:03AM 30.8800 -88.9350 58° Northeast 508 585 32,500 1,620 Climbing Houston Center
08:04AM 30.9528 -88.7981 58° Northeast 511 588 34,100 1,620 Climbing Houston Center
08:05AM 31.0281 -88.6561 58° Northeast 513 590 35,800 1,560 Climbing Houston Center
08:06AM 31.1044 -88.5108 58° Northeast 515 593 37,400 1,500 Climbing Houston Center
08:07AM 31.1772 -88.3694 59° Northeast 511 588 38,900 1,320 Climbing Houston Center
08:08AM 31.2547 -88.2269 58° Northeast 507 583 40,100 900 Climbing Houston Center
08:09AM 31.3289 -88.0842 59° Northeast 508 585 40,800 420 Climbing Houston Center
08:10AM 31.4208 -87.9128 58° Northeast 502 578 41,000 60 Climbing Atlanta Center
08:11AM 31.4942 -87.7722 59° Northeast 502 578 41,000  Level Atlanta Center
08:12AM 31.5650 -87.6289 60° Northeast 502 578 41,000  Level Atlanta Center
08:13AM 31.6400 -87.4856 58° Northeast 502 578 41,000  Level Atlanta Center
08:14AM 31.7108 -87.3442 59° Northeast 507 583 41,000  Level Atlanta Center
08:15AM 31.7747 -87.2122 60° Northeast 502 578 41,000  Level Atlanta Center
08:16AM 31.8572 -87.0831 53° Northeast 502 578 41,000  Level Atlanta Center
08:17AM 31.9419 -86.9536 52° Northeast 502 578 41,000  Level Atlanta Center
08:18AM 32.0283 -86.8219 52° Northeast 502 578 41,000  Level Atlanta Center
08:19AM 32.1253 -86.6850 50° Northeast 497 572 41,000  Level Atlanta Center
08:20AM 32.2094 -86.5550 53° Northeast 497 572 41,000  Level Atlanta Center
08:21AM 32.2933 -86.4272 52° Northeast 497 572 41,000  Level Atlanta Center
08:22AM 32.3644 -86.3061 55° Northeast 492 566 41,000  Level Atlanta Center
08:23AM 32.4439 -86.1778 54° Northeast 492 566 41,000  Level Atlanta Center
08:24AM 32.5447 -86.0272 52° Northeast 508 585 41,000  Level Atlanta Center
08:25AM 32.6281 -85.8961 53° Northeast 508 585 41,000  Level Atlanta Center
08:26AM 32.7136 -85.7619 53° Northeast 508 585 41,000  Level Atlanta Center
08:27AM 32.7967 -85.6303 53° Northeast 503 579 41,000  Level Atlanta Center
08:28AM 32.8797 -85.4981 53° Northeast 498 573 41,000  Level Atlanta Center
08:29AM 32.9625 -85.3708 52° Northeast 498 573 41,000  Level Atlanta Center
08:30AM 33.0453 -85.2383 53° Northeast 498 573 41,000  Level Atlanta Center
08:31AM 33.1281 -85.1081 53° Northeast 493 567 41,000  Level Atlanta Center
08:32AM 33.2106 -84.9750 53° Northeast 493 567 41,000  Level Atlanta Center
08:33AM 33.2928 -84.8417 54° Northeast 499 574 41,000  Level Atlanta Center
08:34AM 33.3750 -84.7081 54° Northeast 499 574 41,000  Level Atlanta Center
08:35AM 33.4611 -84.5717 53° Northeast 499 574 41,000  Level Atlanta Center
08:36AM 33.5431 -84.4325 55° Northeast 499 574 41,000  Level Atlanta Center
08:37AM 33.6269 -84.3008 53° Northeast 499 574 41,000  Level Atlanta Center
08:38AM 33.7108 -84.1561 55° Northeast 510 587 41,000  Level Atlanta Center
08:39AM 33.7964 -84.0214 53° Northeast 515 593 41,000  Level Atlanta Center
08:40AM 33.8778 -83.8886 54° Northeast 500 575 41,000  Level Atlanta Center
08:41AM 33.9589 -83.7508 55° Northeast 500 575 41,000  Level Atlanta Center
08:42AM 34.0419 -83.6150 54° Northeast 500 575 41,000  Level Atlanta Center
08:43AM 34.1144 -83.4969 53° Northeast 500 575 41,000  Level Atlanta Center
08:44AM 34.1931 -83.3633 55° Northeast 500 575 41,000  Level Atlanta Center
08:45AM 34.2717 -83.2319 54° Northeast 492 566 41,000  Level Atlanta Center
08:46AM 34.3522 -83.1003 53° Northeast 492 566 41,000  Level Atlanta Center
08:47AM 34.4281 -82.9633 56° Northeast 487 560 41,000  Level Atlanta Center
08:48AM 34.5083 -82.8314 54° Northeast 487 560 41,000  Level Atlanta Center
08:49AM 34.5864 -82.6964 55° Northeast 487 560 41,000  Level Atlanta Center
08:50AM 34.6722 -82.5561 53° Northeast 481 554 41,000  Level Atlanta Center
08:51AM 34.7478 -82.4183 56° Northeast 481 554 41,000  Level Atlanta Center
08:52AM 34.8253 -82.2853 55° Northeast 481 554 41,000  Level Atlanta Center
08:53AM 34.9025 -82.1569 54° Northeast 481 554 41,000  Level Atlanta Center
08:54AM 34.9717 -82.0389 54° Northeast 474 545 41,000  Level Atlanta Center
08:55AM 35.0467 -81.9025 56° Northeast 484 557 41,000  Level Atlanta Center
08:56AM 35.1272 -81.7508 57° Northeast 484 557 41,000  Level Atlanta Center
08:57AM 35.2039 -81.6086 57° Northeast 489 563 41,000  Level Atlanta Center
08:58AM 35.2783 -81.4692 57° Northeast 489 563 41,000  Level Atlanta Center
08:59AM 35.3503 -81.3244 59° Northeast 489 563 41,000  Level Atlanta Center
09:00AM 35.4242 -81.1817 58° Northeast 489 563 41,000  Level Atlanta Center
09:01AM 35.5000 -81.0336 58° Northeast 500 575 41,000  Level Atlanta Center
09:02AM 35.5756 -80.8906 57° Northeast 500 575 41,000  Level Atlanta Center
09:04AM 35.7075 -80.6364 57° Northeast 492 566 41,000  Level Washington Center
09:05AM 35.7800 -80.4950 58° Northeast 486 559 41,000  Level Washington Center
09:06AM 35.8528 -80.3508 58° Northeast 486 559 41,000  Level Washington Center
09:07AM 35.9250 -80.2092 58° Northeast 479 551 41,000  Level Washington Center
09:08AM 35.9992 -80.0697 57° Northeast 479 551 41,000  Level Washington Center
09:09AM 36.0731 -79.9325 56° Northeast 474 545 41,000  Level Washington Center
09:10AM 36.1511 -79.7953 55° Northeast 479 551 41,000  Level Washington Center
09:11AM 36.2269 -79.6525 57° Northeast 486 559 41,000  Level Washington Center
09:12AM 36.3047 -79.5147 55° Northeast 486 559 41,000  Level Washington Center
09:13AM 36.3686 -79.4072 54° Northeast 486 559 41,000 -660 Level Washington Center
09:14AM 36.4594 -79.2358 57° Northeast 491 565 39,700 -2,040 Descending Washington Center
09:15AM 36.5406 -79.1053 52° Northeast 491 565 36,900 -3,120 Descending Washington Center
09:16AM 36.6156 -78.9664 56° Northeast 479 551 33,600 -3,180 Descending Washington Center
09:17AM 36.6839 -78.8372 57° Northeast 479 551 30,700 -2,040 Descending Washington Center
09:18AM 36.7606 -78.6978 56° Northeast 484 557 29,600 -840 Descending Washington Center
09:19AM 36.8478 -78.5431 55° Northeast 489 563 29,000 -600 Descending Washington Center
09:20AM 36.9156 -78.4131 57° Northeast 489 563 28,500 -720 Descending Washington Center
09:21AM 37.0006 -78.2603 55° Northeast 489 563 27,600 -780 Descending Washington Center
09:22AM 37.0742 -78.1403 52° Northeast 489 563 27,000 -360 Descending Washington Center
09:23AM 37.1844 -78.0528 32° Northeast 458 527 27,000  Level Washington Center
09:24AM 37.2944 -77.9728 30° Northeast 458 527 27,000 -240 Level Washington Center
09:25AM 37.4047 -77.8872 32° Northeast 458 527 26,600 -720 Descending Washington Center
09:26AM 37.5147 -77.8042 31° Northeast 463 533 25,600 -1,200 Descending Washington Center
09:27AM 37.6247 -77.7208 31° Northeast 457 526 24,300 -1,200 Descending Washington Center
09:28AM 37.7303 -77.6425 30° Northeast 457 526 23,300 -1,020 Descending Washington Center
09:29AM 37.8339 -77.5611 32° Northeast 451 519 22,300 -660 Descending Washington Center
09:30AM 37.9372 -77.4822 31° Northeast 439 505 22,000 -300 Descending Washington Center
09:31AM 38.0386 -77.4056 31° Northeast 433 498 21,800 -780 Descending Washington Center
09:32AM 38.1544 -77.3186 31° Northeast 433 498 20,500 -1,200 Descending Washington Center
09:33AM 38.2558 -77.2392 32° Northeast 433 498 19,400 -2,220 Descending Washington Center
09:34AM 38.3506 -77.1617 33° Northeast 423 487 16,200 -2,700 Descending Washington Center
09:35AM 38.4372 -77.0708 39° Northeast 411 473 14,100 -1,740 Descending Washington Center
09:36AM 38.5156 -76.9742 44° Northeast 395 455 12,800 -1,620 Descending Washington Center
09:37AM 38.5894 -76.8853 43° Northeast 376 433 10,900 -1,380 Descending Washington Center
09:38AM 38.6614 -76.8014 42° Northeast 357 411 10,100 -960 Descending Washington Center
09:39AM 38.7142 -76.7225 49° Northeast 317 365 9,000 -1,260 Descending Washington Center
09:40AM 38.7547 -76.6325 60° Northeast 302 348 7,700 -1,320 Descending Washington Center
09:40AM 38.7833 -76.5833 53° Northeast 289 333 7,100 -1,260 Descending Potomac TRACON
09:41AM 38.8333 -76.5333 38° Northeast 270 311 6,000 -1,140 Descending Potomac TRACON
09:42AM 38.9000 -76.5333 360° North 257 296 5,000 -1,020 Descending Potomac TRACON
09:43AM 38.9667 -76.5500 349° North 260 299 4,100 -1,020 Descending Potomac TRACON
09:44AM 39.0333 -76.5833 339° North 249 287 3,100 -1,140 Descending Potomac TRACON
09:45AM 39.0833 -76.6000 345° North 198 228 1,900 -1,020 Descending Potomac TRACON
09:46AM 39.1333 -76.6333 333° Northwest 145 167 1,100 -780 Descending Potomac TRACON
09:47AM 39.1500 -76.6500 322° Northwest 126 145 400 -720 Descending Potomac TRACON
09:49AM 39.1667 -76.6667 339° North  Level FlightAware Approximate
09:56AM 39.1754 -76.6683 339° North  Level Estimated
09:57AM 39.1754 -76.6683 339° North  Level Estimated
09:58AM 39.1754 -76.6683 339° North  Level Estimated